createdAt,value
2022-09-25T00:01:26.553Z,10.03
2022-09-25T00:03:56.403Z,10.03
2022-09-25T00:06:26.065Z,9.97
2022-09-25T00:08:55.197Z,9.95
2022-09-25T00:11:25.292Z,9.93
2022-09-25T00:13:53.926Z,9.89
2022-09-25T00:16:24.511Z,9.87
2022-09-25T00:19:21.618Z,9.86
2022-09-25T00:21:53.192Z,9.90
2022-09-25T00:24:22.480Z,9.81
2022-09-25T00:26:50.566Z,9.75
2022-09-25T00:29:20.803Z,9.75
2022-09-25T00:31:48.833Z,9.72
2022-09-25T00:34:18.429Z,9.67
2022-09-25T00:36:46.435Z,9.63
2022-09-25T00:39:15.908Z,9.63
2022-09-25T00:41:44.208Z,9.61
2022-09-25T00:44:53.365Z,9.55
2022-09-25T00:47:28.804Z,9.53
2022-09-25T00:49:59.430Z,9.61
2022-09-25T00:52:28.237Z,9.56
2022-09-25T00:55:02.340Z,9.54
2022-09-25T00:57:34.554Z,9.51
2022-09-25T01:00:08.333Z,9.47
2022-09-25T01:02:40.123Z,9.47
2022-09-25T01:05:12.025Z,9.47
2022-09-25T01:07:43.208Z,9.44
2022-09-25T01:10:14.046Z,9.50
2022-09-25T01:12:45.124Z,9.56
2022-09-25T01:15:15.015Z,9.55
2022-09-25T01:17:53.070Z,9.47
2022-09-25T01:20:38.369Z,9.40
2022-09-25T01:23:21.448Z,9.36
2022-09-25T01:26:06.990Z,9.33
2022-09-25T01:28:54.511Z,9.25
2022-09-25T01:31:33.242Z,9.16
2022-09-25T01:34:07.751Z,9.16
2022-09-25T01:36:39.176Z,9.30
2022-09-25T01:39:13.384Z,9.36
2022-09-25T01:41:50.886Z,9.33
2022-09-25T01:44:26.026Z,9.27
2022-09-25T01:46:57.068Z,9.19
2022-09-25T01:49:30.574Z,9.06
2022-09-25T01:52:01.120Z,9.01
2022-09-25T01:54:34.216Z,8.98
2022-09-25T01:57:09.583Z,8.96
2022-09-25T01:59:46.392Z,8.87
2022-09-25T02:02:19.394Z,8.82
2022-09-25T02:04:54.263Z,8.83
2022-09-25T02:07:29.686Z,8.82
2022-09-25T02:10:03.715Z,8.81
2022-09-25T02:12:36.236Z,8.75
2022-09-25T02:15:11.877Z,8.71
2022-09-25T02:18:03.799Z,8.68
2022-09-25T02:20:34.111Z,8.66
2022-09-25T02:23:14.845Z,8.66
2022-09-25T02:25:46.495Z,8.65
2022-09-25T02:28:14.473Z,8.65
2022-09-25T02:30:46.385Z,8.70
2022-09-25T02:33:14.455Z,8.69
2022-09-25T02:35:42.917Z,8.66
2022-09-25T02:38:11.018Z,8.60
2022-09-25T02:40:48.663Z,8.59
2022-09-25T02:43:27.617Z,8.53
2022-09-25T02:46:04.594Z,8.52
2022-09-25T02:48:44.441Z,8.51
2022-09-25T02:51:20.024Z,8.46
2022-09-25T02:53:54.769Z,8.42
2022-09-25T02:56:31.627Z,8.34
2022-09-25T02:59:07.745Z,8.27
2022-09-25T03:01:42.065Z,8.23
2022-09-25T03:04:11.787Z,8.27
2022-09-25T03:06:41.068Z,8.25
2022-09-25T03:09:12.086Z,8.22
2022-09-25T03:11:41.758Z,8.20
2022-09-25T03:14:10.045Z,8.16
2022-09-25T03:16:46.723Z,8.09
2022-09-25T03:19:16.084Z,8.08
2022-09-25T03:21:44.056Z,8.05
2022-09-25T03:24:12.239Z,8.02
2022-09-25T03:26:40.926Z,8.01
2022-09-25T03:29:09.240Z,7.99
2022-09-25T03:31:37.574Z,8.01
2022-09-25T03:34:07.069Z,7.99
2022-09-25T03:36:36.485Z,7.99
2022-09-25T03:39:06.819Z,8.16
2022-09-25T03:41:35.999Z,8.19
2022-09-25T03:44:04.973Z,8.15
2022-09-25T03:46:35.149Z,8.09
2022-09-25T03:49:04.832Z,8.06
2022-09-25T03:51:35.331Z,8.05
2022-09-25T03:54:04.319Z,8.01
2022-09-25T03:56:32.940Z,7.98
2022-09-25T03:59:01.417Z,7.92
2022-09-25T04:01:29.950Z,7.88
2022-09-25T04:03:58.264Z,7.88
2022-09-25T04:06:28.679Z,7.86
2022-09-25T04:08:58.072Z,7.90
2022-09-25T04:11:26.615Z,7.89
2022-09-25T04:13:55.387Z,7.96
2022-09-25T04:16:23.470Z,8.00
2022-09-25T04:18:51.523Z,8.00
2022-09-25T04:21:19.679Z,7.96
2022-09-25T04:24:07.765Z,8.04
2022-09-25T04:26:37.208Z,8.05
2022-09-25T04:29:06.736Z,8.00
2022-09-25T04:31:35.014Z,7.99
2022-09-25T04:34:02.613Z,7.99
2022-09-25T04:36:30.586Z,8.03
2022-09-25T04:38:58.551Z,8.01
2022-09-25T04:41:26.612Z,8.04
2022-09-25T04:43:55.973Z,8.24
2022-09-25T04:46:25.263Z,8.24
2022-09-25T04:48:53.286Z,8.21
2022-09-25T04:51:22.067Z,8.34
2022-09-25T04:53:50.065Z,8.34
2022-09-25T04:56:18.235Z,8.37
2022-09-25T04:58:47.705Z,8.43
2022-09-25T05:01:18.650Z,8.53
2022-09-25T05:03:50.249Z,8.51
2022-09-25T05:06:18.495Z,8.56
2022-09-25T05:08:49.440Z,8.58
2022-09-25T05:11:17.405Z,8.61
2022-09-25T05:13:46.796Z,8.65
2022-09-25T05:16:17.820Z,8.74
2022-09-25T05:18:46.263Z,8.76
2022-09-25T05:21:14.212Z,8.84
2022-09-25T05:23:42.372Z,8.87
2022-09-25T05:26:11.082Z,8.97
2022-09-25T05:28:39.322Z,9.06
2022-09-25T05:31:07.625Z,9.12
2022-09-25T05:33:37.408Z,9.20
2022-09-25T05:36:07.667Z,9.16
2022-09-25T05:38:37.011Z,9.21
2022-09-25T05:41:07.125Z,9.30
2022-09-25T05:43:40.243Z,9.25
2022-09-25T05:46:08.627Z,9.29
2022-09-25T05:48:38.424Z,9.29
2022-09-25T05:51:07.070Z,9.36
2022-09-25T05:53:35.339Z,9.44
2022-09-25T05:56:05.310Z,9.58
2022-09-25T05:58:35.239Z,9.54
2022-09-25T06:01:04.440Z,9.67
2022-09-25T06:03:32.906Z,9.71
2022-09-25T06:06:03.434Z,9.77
2022-09-25T06:08:32.340Z,9.89
2022-09-25T06:11:02.446Z,9.94
2022-09-25T06:13:35.128Z,10.15
2022-09-25T06:16:03.902Z,10.14
2022-09-25T06:18:32.496Z,10.16
2022-09-25T06:21:04.002Z,10.24
2022-09-25T06:23:32.399Z,10.49
2022-09-25T06:26:04.504Z,10.51
2022-09-25T06:28:33.037Z,10.65
2022-09-25T06:31:02.272Z,10.74
2022-09-25T06:33:31.052Z,10.86
2022-09-25T06:36:00.540Z,10.98
2022-09-25T06:38:32.450Z,10.98
2022-09-25T06:41:00.909Z,11.01
2022-09-25T06:43:30.155Z,11.03
2022-09-25T06:46:04.192Z,11.10
2022-09-25T06:48:32.946Z,11.31
2022-09-25T06:51:02.808Z,11.39
2022-09-25T06:53:32.315Z,11.45
2022-09-25T06:56:01.094Z,11.52
2022-09-25T06:58:30.625Z,11.67
2022-09-25T07:00:59.234Z,11.79
2022-09-25T07:03:45.282Z,11.83
2022-09-25T07:06:15.698Z,11.87
2022-09-25T07:08:46.395Z,11.99
2022-09-25T07:11:16.123Z,12.07
2022-09-25T07:13:44.310Z,12.16
2022-09-25T07:16:16.056Z,12.18
2022-09-25T07:18:44.974Z,12.30
2022-09-25T07:21:16.006Z,12.31
2022-09-25T07:23:45.710Z,12.68
2022-09-25T07:26:16.445Z,12.83
2022-09-25T07:28:45.716Z,12.83
2022-09-25T07:31:19.380Z,12.88
2022-09-25T07:33:48.535Z,13.07
2022-09-25T07:36:17.954Z,13.14
2022-09-25T07:38:50.695Z,13.18
2022-09-25T07:41:19.765Z,13.25
2022-09-25T07:43:47.961Z,13.28
2022-09-25T07:46:16.172Z,13.39
2022-09-25T07:48:44.327Z,13.43
2022-09-25T07:51:13.404Z,13.66
2022-09-25T07:53:42.777Z,13.83
2022-09-25T07:56:12.888Z,13.95
2022-09-25T07:58:41.507Z,14.03
2022-09-25T08:01:12.990Z,14.03
2022-09-25T08:03:41.216Z,14.22
2022-09-25T08:06:11.950Z,14.36
2022-09-25T08:08:40.847Z,14.58
2022-09-25T08:11:12.893Z,14.77
2022-09-25T08:13:42.056Z,14.70
2022-09-25T08:16:13.710Z,14.77
2022-09-25T08:18:42.638Z,14.98
2022-09-25T08:21:14.219Z,15.00
2022-09-25T08:23:47.688Z,15.06
2022-09-25T08:26:17.911Z,15.14
2022-09-25T08:28:46.289Z,15.23
2022-09-25T08:31:15.445Z,15.33
2022-09-25T08:33:46.110Z,15.34
2022-09-25T08:36:14.067Z,15.53
2022-09-25T08:38:42.016Z,15.64
2022-09-25T08:41:16.484Z,15.65
2022-09-25T08:43:53.835Z,15.77
2022-09-25T08:46:43.429Z,15.80
2022-09-25T08:49:14.303Z,15.98
2022-09-25T08:51:47.197Z,16.08
2022-09-25T08:54:23.745Z,16.08
2022-09-25T08:56:53.692Z,16.16
2022-09-25T08:59:29.379Z,16.32
2022-09-25T09:02:00.695Z,16.48
2022-09-25T09:04:32.510Z,16.56
2022-09-25T09:07:26.295Z,16.73
2022-09-25T09:10:02.084Z,16.90
2022-09-25T09:12:37.462Z,16.90
2022-09-25T09:15:31.935Z,17.03
2022-09-25T09:18:02.523Z,17.14
2022-09-25T09:20:38.468Z,17.23
2022-09-25T09:23:11.085Z,17.38
2022-09-25T09:25:52.238Z,17.36
2022-09-25T09:28:52.160Z,17.37
2022-09-25T09:31:27.999Z,17.46
2022-09-25T09:34:31.942Z,17.60
2022-09-25T09:37:17.105Z,17.87
2022-09-25T09:39:52.944Z,18.03
2022-09-25T09:42:27.493Z,18.19
2022-09-25T09:45:09.607Z,18.31
2022-09-25T09:47:46.759Z,18.43
2022-09-25T09:50:25.648Z,18.53
2022-09-25T09:52:59.611Z,18.45
2022-09-25T09:55:34.694Z,18.39
2022-09-25T09:58:08.729Z,18.36
2022-09-25T10:00:37.748Z,18.36
2022-09-25T10:03:19.962Z,18.48
2022-09-25T10:05:49.334Z,18.57
2022-09-25T10:08:18.406Z,18.74
2022-09-25T10:10:48.684Z,18.98
2022-09-25T10:13:20.354Z,19.25
2022-09-25T10:15:52.925Z,19.29
2022-09-25T10:18:27.201Z,19.27
2022-09-25T10:21:02.881Z,19.18
2022-09-25T10:23:39.829Z,19.03
2022-09-25T10:26:26.848Z,19.26
2022-09-25T10:28:57.840Z,19.24
2022-09-25T10:31:29.097Z,19.36
2022-09-25T10:34:04.184Z,19.33
2022-09-25T10:36:35.302Z,19.47
2022-09-25T10:39:39.136Z,19.41
2022-09-25T10:41:53.725Z,19.52
2022-09-25T10:44:24.922Z,19.53
2022-09-25T10:47:10.829Z,19.69
2022-09-25T10:50:06.690Z,19.57
2022-09-25T10:52:50.081Z,19.70
2022-09-25T10:55:28.401Z,19.83
2022-09-25T10:58:09.352Z,20.08
2022-09-25T11:00:44.127Z,20.26
2022-09-25T11:03:21.809Z,20.30
2022-09-25T11:05:58.161Z,20.38
2022-09-25T11:08:30.303Z,20.38
2022-09-25T11:11:00.020Z,20.54
2022-09-25T11:13:32.256Z,20.47
2022-09-25T11:16:02.573Z,20.43
2022-09-25T11:18:39.129Z,20.68
2022-09-25T11:21:21.054Z,20.81
2022-09-25T11:24:09.185Z,20.92
2022-09-25T11:26:41.788Z,20.90
2022-09-25T11:29:17.184Z,20.92
2022-09-25T11:31:51.688Z,20.98
2022-09-25T11:34:30.633Z,21.07
2022-09-25T11:37:08.165Z,21.17
2022-09-25T11:40:02.625Z,21.19
2022-09-25T11:42:38.228Z,21.19
2022-09-25T11:45:12.229Z,21.20
2022-09-25T11:47:47.175Z,21.22
2022-09-25T11:50:17.962Z,21.25
2022-09-25T11:52:59.854Z,21.11
2022-09-25T11:55:58.232Z,21.08
2022-09-25T11:58:43.458Z,21.11
2022-09-25T12:01:26.180Z,21.11
2022-09-25T12:04:07.492Z,21.14
2022-09-25T12:06:53.431Z,21.13
2022-09-25T12:09:38.904Z,21.12
2022-09-25T12:12:15.852Z,21.04
2022-09-25T12:14:54.605Z,21.12
2022-09-25T12:17:33.434Z,21.23
2022-09-25T12:20:08.630Z,21.30
2022-09-25T12:22:48.782Z,21.35
2022-09-25T12:25:34.190Z,21.47
2022-09-25T12:28:09.684Z,21.51
2022-09-25T12:30:46.405Z,21.54
2022-09-25T12:33:26.978Z,21.55
2022-09-25T12:36:01.133Z,21.60
2022-09-25T12:38:40.188Z,21.72
2022-09-25T12:41:18.250Z,21.63
2022-09-25T12:43:52.230Z,21.56
2022-09-25T12:46:27.624Z,21.71
2022-09-25T12:49:02.181Z,21.64
2022-09-25T12:51:35.834Z,21.62
2022-09-25T12:54:08.382Z,21.73
2022-09-25T12:56:44.421Z,21.76
2022-09-25T12:59:17.546Z,21.58
2022-09-25T13:01:54.493Z,21.65
2022-09-25T13:04:48.273Z,21.79
2022-09-25T13:07:23.548Z,21.86
2022-09-25T13:09:51.668Z,21.85
2022-09-25T13:12:34.962Z,21.99
2022-09-25T13:15:09.753Z,22.07
2022-09-25T13:17:38.660Z,21.98
2022-09-25T13:20:49.531Z,21.94
2022-09-25T13:23:32.346Z,21.96
2022-09-25T13:26:03.180Z,22.08
2022-09-25T13:28:35.575Z,22.13
2022-09-25T13:31:09.578Z,22.20
2022-09-25T13:33:48.890Z,22.09
2022-09-25T13:36:33.173Z,22.02
2022-09-25T13:39:22.153Z,22.02
2022-09-25T13:41:55.566Z,22.05
2022-09-25T13:45:00.245Z,22.12
2022-09-25T13:47:50.363Z,22.11
2022-09-25T13:50:23.722Z,22.16
2022-09-25T13:53:23.161Z,22.17
2022-09-25T13:56:27.621Z,22.09
2022-09-25T13:59:24.675Z,22.10
2022-09-25T14:02:00.305Z,22.12
2022-09-25T14:04:36.031Z,22.05
2022-09-25T14:07:17.771Z,22.05
2022-09-25T14:09:48.771Z,22.09
2022-09-25T14:12:25.271Z,22.08
2022-09-25T14:14:59.614Z,22.06
2022-09-25T14:17:32.647Z,22.07
2022-09-25T14:20:03.804Z,22.03
2022-09-25T14:22:46.700Z,21.96
2022-09-25T14:25:27.710Z,21.94
2022-09-25T14:27:56.316Z,21.97
2022-09-25T14:30:29.161Z,22.01
2022-09-25T14:33:20.123Z,21.95
2022-09-25T14:35:57.699Z,21.96
2022-09-25T14:39:12.962Z,21.87
2022-09-25T14:42:01.843Z,21.86
2022-09-25T14:45:06.153Z,21.73
2022-09-25T14:47:37.679Z,21.63
2022-09-25T14:50:08.104Z,21.71
2022-09-25T14:52:37.854Z,21.72
2022-09-25T14:55:06.831Z,21.76
2022-09-25T14:57:37.312Z,21.82
2022-09-25T15:00:09.097Z,21.82
2022-09-25T15:02:41.764Z,21.89
2022-09-25T15:05:30.836Z,21.83
2022-09-25T15:08:02.310Z,21.88
2022-09-25T15:10:33.535Z,21.86
2022-09-25T15:13:10.024Z,21.92
2022-09-25T15:15:39.915Z,21.88
2022-09-25T15:18:12.939Z,21.82
2022-09-25T15:20:48.059Z,21.76
2022-09-25T15:23:19.812Z,21.69
2022-09-25T15:25:51.919Z,21.63
2022-09-25T15:28:22.428Z,21.67
2022-09-25T15:30:58.114Z,21.57
2022-09-25T15:33:29.328Z,21.45
2022-09-25T15:36:00.117Z,21.31
2022-09-25T15:38:33.328Z,21.19
2022-09-25T15:41:03.232Z,21.09
2022-09-25T15:43:31.577Z,21.01
2022-09-25T15:46:20.596Z,20.91
2022-09-25T15:48:56.061Z,20.86
2022-09-25T15:51:29.683Z,20.81
2022-09-25T15:54:00.178Z,20.74
2022-09-25T15:56:30.145Z,20.65
2022-09-25T15:59:02.342Z,20.57
2022-09-25T16:01:49.405Z,20.50
2022-09-25T16:04:39.038Z,20.40
2022-09-25T16:07:25.608Z,20.30
2022-09-25T16:09:55.267Z,20.21
2022-09-25T16:12:29.240Z,20.11
2022-09-25T16:14:59.297Z,20.03
2022-09-25T16:17:33.679Z,19.93
2022-09-25T16:20:07.597Z,19.86
2022-09-25T16:22:48.836Z,19.78
2022-09-25T16:25:25.740Z,19.71
2022-09-25T16:27:56.301Z,19.63
2022-09-25T16:30:25.132Z,19.56
2022-09-25T16:32:55.306Z,19.54
2022-09-25T16:35:27.570Z,19.48
2022-09-25T16:37:59.599Z,19.41
2022-09-25T16:40:33.795Z,19.33
2022-09-25T16:43:02.698Z,19.33
2022-09-25T16:45:34.398Z,19.25
2022-09-25T16:48:24.096Z,19.12
2022-09-25T16:50:54.779Z,19.04
2022-09-25T16:53:23.602Z,18.95
2022-09-25T16:55:53.446Z,18.87
2022-09-25T16:58:22.329Z,18.78
2022-09-25T17:00:51.085Z,18.72
2022-09-25T17:03:19.411Z,18.65
2022-09-25T17:05:47.429Z,18.58
2022-09-25T17:08:19.861Z,18.54
2022-09-25T17:10:52.202Z,18.46
2022-09-25T17:13:27.681Z,18.37
2022-09-25T17:15:57.595Z,18.30
2022-09-25T17:18:25.978Z,18.21
2022-09-25T17:20:56.546Z,18.13
2022-09-25T17:23:27.410Z,18.05
2022-09-25T17:26:00.904Z,18.00
2022-09-25T17:28:29.511Z,17.92
2022-09-25T17:30:58.115Z,17.83
2022-09-25T17:33:27.428Z,17.74
2022-09-25T17:35:59.800Z,17.67
2022-09-25T17:38:29.314Z,17.59
2022-09-25T17:41:03.164Z,17.52
2022-09-25T17:43:34.718Z,17.43
2022-09-25T17:46:03.051Z,17.36
2022-09-25T17:48:32.678Z,17.32
2022-09-25T17:51:02.330Z,17.29
2022-09-25T17:53:35.438Z,17.22
2022-09-25T17:56:03.997Z,17.17
2022-09-25T17:58:33.634Z,17.10
2022-09-25T18:01:04.152Z,17.04
2022-09-25T18:03:32.621Z,17.00
2022-09-25T18:06:00.724Z,17.04
2022-09-25T18:08:29.185Z,16.99
2022-09-25T18:11:00.018Z,16.99
2022-09-25T18:13:28.065Z,16.99
2022-09-25T18:15:58.318Z,16.94
2022-09-25T18:18:47.282Z,16.84
2022-09-25T18:21:33.056Z,16.77
2022-09-25T18:24:01.097Z,16.69
2022-09-25T18:26:31.566Z,16.66
2022-09-25T18:28:59.892Z,16.59
2022-09-25T18:31:28.289Z,16.54
2022-09-25T18:33:56.651Z,16.58
2022-09-25T18:36:25.335Z,16.60
2022-09-25T18:38:53.518Z,16.56
2022-09-25T18:41:21.841Z,16.48
2022-09-25T18:43:51.192Z,16.54
2022-09-25T18:46:19.528Z,16.48
2022-09-25T18:48:48.408Z,16.39
2022-09-25T18:51:17.049Z,16.35
2022-09-25T18:53:45.086Z,16.35
2022-09-25T18:56:13.143Z,16.37
2022-09-25T18:58:41.174Z,16.25
2022-09-25T19:01:10.986Z,16.20
2022-09-25T19:03:40.996Z,16.21
2022-09-25T19:06:09.245Z,16.16
2022-09-25T19:08:37.462Z,16.17
2022-09-25T19:11:13.941Z,16.18
2022-09-25T19:13:42.885Z,16.22
2022-09-25T19:16:12.515Z,16.25
2022-09-25T19:18:40.672Z,16.25
2022-09-25T19:21:08.659Z,16.13
2022-09-25T19:23:36.819Z,16.06
2022-09-25T19:26:06.195Z,15.98
2022-09-25T19:28:36.065Z,15.92
2022-09-25T19:31:06.861Z,15.86
2022-09-25T19:33:38.513Z,15.75
2022-09-25T19:36:09.102Z,15.69
2022-09-25T19:38:40.191Z,15.64
2022-09-25T19:41:14.442Z,15.57
2022-09-25T19:43:43.029Z,15.56
2022-09-25T19:46:14.704Z,15.65
2022-09-25T19:48:44.797Z,15.68
2022-09-25T19:51:12.884Z,15.61
2022-09-25T19:53:42.362Z,15.56
2022-09-25T19:56:11.607Z,15.49
2022-09-25T19:58:40.141Z,15.52
2022-09-25T20:01:12.718Z,15.47
2022-09-25T20:03:41.850Z,15.34
2022-09-25T20:06:12.029Z,15.22
2022-09-25T20:08:40.197Z,15.12
2022-09-25T20:11:13.704Z,15.04
2022-09-25T20:13:41.647Z,15.03
2022-09-25T20:16:11.699Z,15.05
2022-09-25T20:18:40.013Z,14.92
2022-09-25T20:21:09.340Z,14.86
2022-09-25T20:23:38.721Z,14.81
2022-09-25T20:26:11.418Z,14.75
2022-09-25T20:28:41.662Z,14.72
2022-09-25T20:31:12.658Z,14.69
2022-09-25T20:33:41.861Z,14.67
2022-09-25T20:36:13.269Z,14.54
2022-09-25T20:38:43.230Z,14.45
2022-09-25T20:41:13.081Z,14.44
2022-09-25T20:43:44.216Z,14.39
2022-09-25T20:46:14.841Z,14.36
2022-09-25T20:48:45.951Z,14.27
2022-09-25T20:51:18.982Z,14.21
2022-09-25T20:53:53.059Z,14.14
2022-09-25T20:56:22.047Z,14.09
2022-09-25T20:58:53.319Z,14.09
2022-09-25T21:01:23.735Z,14.07
2022-09-25T21:03:52.804Z,13.99
2022-09-25T21:06:22.911Z,13.94
2022-09-25T21:08:55.874Z,13.89
2022-09-25T21:11:25.629Z,13.85
2022-09-25T21:13:58.090Z,13.80
2022-09-25T21:16:27.795Z,13.77
2022-09-25T21:18:58.313Z,13.80
2022-09-25T21:21:27.439Z,13.75
2022-09-25T21:23:58.578Z,13.79
2022-09-25T21:26:28.859Z,13.83
2022-09-25T21:28:58.831Z,13.78
2022-09-25T21:31:28.337Z,13.70
2022-09-25T21:33:57.817Z,13.64
2022-09-25T21:36:27.020Z,13.59
2022-09-25T21:38:57.038Z,13.58
2022-09-25T21:41:26.546Z,13.65
2022-09-25T21:43:55.707Z,13.80
2022-09-25T21:46:24.481Z,13.72
2022-09-25T21:48:54.705Z,13.71
2022-09-25T21:51:25.187Z,13.70
2022-09-25T21:53:54.373Z,13.63
2022-09-25T21:56:26.422Z,13.53
2022-09-25T21:58:55.979Z,13.49
2022-09-25T22:01:30.012Z,13.51
2022-09-25T22:03:59.564Z,13.60
2022-09-25T22:06:29.818Z,13.53
2022-09-25T22:09:00.111Z,13.46
2022-09-25T22:11:30.416Z,13.46
2022-09-25T22:14:00.233Z,13.44
2022-09-25T22:16:30.511Z,13.38
2022-09-25T22:19:00.493Z,13.34
2022-09-25T22:21:30.356Z,13.28
2022-09-25T22:23:58.990Z,13.30
2022-09-25T22:26:27.659Z,13.26
2022-09-25T22:28:57.713Z,13.12
2022-09-25T22:31:27.570Z,13.00
2022-09-25T22:33:58.438Z,12.95
2022-09-25T22:36:27.150Z,12.91
2022-09-25T22:38:55.776Z,12.92
2022-09-25T22:41:24.266Z,12.87
2022-09-25T22:43:53.996Z,12.82
2022-09-25T22:46:25.239Z,12.79
2022-09-25T22:48:53.367Z,12.75
2022-09-25T22:51:22.809Z,12.70
2022-09-25T22:53:51.820Z,12.64
2022-09-25T22:56:21.906Z,12.58
2022-09-25T22:58:51.999Z,12.53
2022-09-25T23:01:24.609Z,12.49
2022-09-25T23:03:56.498Z,12.47
2022-09-25T23:06:24.911Z,12.44
2022-09-25T23:08:54.525Z,12.39
2022-09-25T23:11:24.043Z,12.34
2022-09-25T23:13:57.139Z,12.31
2022-09-25T23:16:27.207Z,12.24
2022-09-25T23:18:57.467Z,12.22
2022-09-25T23:21:25.515Z,12.20
2022-09-25T23:23:57.195Z,12.15
2022-09-25T23:26:25.516Z,12.13
2022-09-25T23:28:53.536Z,12.11
2022-09-25T23:31:22.622Z,12.07
2022-09-25T23:33:52.034Z,12.08
2022-09-25T23:36:22.238Z,12.06
2022-09-25T23:38:51.434Z,12.07
2022-09-25T23:41:22.752Z,12.08
2022-09-25T23:43:52.409Z,12.05
2022-09-25T23:46:22.655Z,12.04
2022-09-25T23:48:52.544Z,12.01
2022-09-25T23:51:22.287Z,12.06
2022-09-25T23:53:51.246Z,11.98
2022-09-25T23:56:21.399Z,11.97
2022-09-25T23:58:50.281Z,11.87
